Terminal Aerodrome Forecast
Issued by NWS

Home | Current Version | Previous Version | Text Only | Print | Product List | Glossary On
Versions: 1 2 3 4 5 6 7 8 9 10 11 12
744
FTAK31 PAJN 191120
TAFAJN
TAF
PAJN 191120Z 1912/2012 11020G30KT 6SM -RA BR SCT015 OVC035
      WS020/14040KT
      TEMPO 1912/1916 5SM -RA BKN020 OVC030
     FM192000 13025G35KT 5SM -RA BR OVC025
     FM200300 13015G25KT 6SM -SHRA BR SCT025 OVC035=

USA.gov is the U.S. government's official web portal to all federal, state and local government web resources and services.